KFKL/FKL METAR and TAF weather

Enter ICAO airport designator
Station Type Date Time Source
KFKL METAR 2019/04/22 18:56 UTC NOAA

KFKL 221856Z AUTO 00000KT 10SM CLR 17/07 A3019 RMK AO2 SLP225 T01670067


Station Type Date Time Source
KFKL Decoded METAR 2019/04/22 18:56 UTC NOAA

Franklin, Venango Regional Airport, PA, United States (KFKL) 41-23N 079-52W
Apr 22, 2019 - 02:56 PM EDT / 2019.04.22 1856 UTC
Wind: Calm:0
Visibility: 10 mile(s):0
Sky conditions: clear
Temperature: 62.1 F (16.7 C)
Dew Point: 44.1 F (6.7 C)
Relative Humidity: 51%
Pressure (altimeter): 30.19 in. Hg (1022 hPa)
ob: KFKL 221856Z AUTO 00000KT 10SM CLR 17/07 A3019 RMK AO2 SLP225 T01670067
cycle: 19

Station Type Date Time Source
KFKL TAF 2019/04/22 18:22 UTC NOAA

TAF KFKL 221720Z 2218/2318 VRB04KT P6SM FEW250
FM231300 20010KT P6SM BKN150
FM231700 22013G23KT P6SM VCTS BKN070CB

Example: see airport list